Time;durP1;ratioP1;P1;durP2;ratioP2;P2;SDS_P1;SDS_P2;PMS_P1;PMS_P2;Temp;Humidity;BMP_temperature;BMP_pressure;BME280_temperature;BME280_humidity;BME280_pressure;Samples;Min_cycle;Max_cycle;Signal;HPM_P1;HPM_P2
2021/10/13 00:01:51;;;;;;;16.83;6.30;;;5.70;99.90;;;6.82;100.00;101108.50;6097234;23;20006;-87
2021/10/13 00:04:17;;;;;;;13.35;6.20;;;5.70;99.90;;;6.84;100.00;101109.81;6071432;23;20093;-85
2021/10/13 00:06:44;;;;;;;11.05;5.85;;;5.70;99.90;;;6.85;100.00;101114.22;6095483;23;20007;-85
2021/10/13 00:09:13;;;;;;;18.17;6.88;;;5.80;99.90;;;6.86;100.00;101109.50;6071270;23;20264;-87
2021/10/13 00:11:45;;;;;;;14.45;5.80;;;5.80;99.90;;;6.81;100.00;101113.22;6095388;23;20014;-83
2021/10/13 00:14:11;;;;;;;13.18;6.78;;;5.80;99.90;;;6.84;100.00;101108.97;6096087;23;20085;-87
2021/10/13 00:16:40;;;;;;;20.50;5.88;;;5.80;99.90;;;6.76;100.00;101110.59;6075306;23;20010;-87
2021/10/13 00:19:07;;;;;;;22.85;6.32;;;5.80;99.90;;;6.88;100.00;101116.34;6075890;23;20014;-88
2021/10/13 00:21:34;;;;;;;13.27;6.00;;;5.80;99.90;;;6.90;100.00;101105.72;6094836;23;20011;-88
2021/10/13 00:23:59;;;;;;;14.88;6.88;;;5.90;99.90;;;6.94;100.00;101107.88;6116869;23;20015;-91
2021/10/13 00:26:25;;;;;;;18.05;6.25;;;5.90;99.90;;;6.93;100.00;101106.25;6106282;23;20459;-86
2021/10/13 00:28:54;;;;;;;21.50;7.20;;;5.90;99.90;;;6.90;100.00;101104.94;6099509;23;20345;-86
2021/10/13 00:31:20;;;;;;;12.18;5.78;;;6.00;99.90;;;6.96;100.00;101098.09;6096947;23;20018;-88
2021/10/13 00:33:46;;;;;;;14.88;6.40;;;6.00;99.90;;;7.01;100.00;101097.94;6110580;23;20006;-90
2021/10/13 00:36:15;;;;;;;15.40;6.10;;;6.00;99.90;;;7.13;100.00;101103.66;6116560;23;20014;-86
2021/10/13 00:38:41;;;;;;;15.02;5.85;;;6.00;99.90;;;7.15;100.00;101101.41;6103213;23;20002;-87
2021/10/13 00:41:07;;;;;;;15.60;6.13;;;6.00;99.90;;;7.08;100.00;101097.44;6073697;23;20113;-87
2021/10/13 00:43:37;;;;;;;15.15;5.10;;;6.00;99.90;;;7.06;100.00;101099.75;6080264;23;20082;-84
2021/10/13 00:46:02;;;;;;;9.00;5.75;;;6.00;99.90;;;7.02;100.00;101104.31;6086959;23;20046;-87
2021/10/13 00:48:35;;;;;;;18.80;6.25;;;5.90;99.90;;;6.98;100.00;101097.75;6117017;23;20010;-88
2021/10/13 00:51:08;;;;;;;15.73;6.40;;;5.90;99.90;;;6.98;100.00;101092.19;6104980;23;20352;-85
2021/10/13 00:53:37;;;;;;;12.77;5.63;;;5.90;99.90;;;6.95;100.00;101101.19;6073852;23;20097;-86
2021/10/13 00:56:03;;;;;;;18.35;6.25;;;5.90;99.90;;;7.00;100.00;101099.06;6073160;23;20069;-88
2021/10/13 00:58:32;;;;;;;15.68;6.43;;;5.90;99.90;;;6.95;100.00;101106.72;6096866;23;20062;-88
2021/10/13 01:01:09;;;;;;;18.80;6.88;;;5.90;99.90;;;6.97;100.00;101108.03;6098681;23;20029;-87
2021/10/13 01:04:08;;;;;;;10.02;5.93;;;5.90;99.90;;;6.94;100.00;101107.88;6073071;23;20292;-88
2021/10/13 01:07:03;;;;;;;12.30;5.55;;;5.90;99.90;;;6.95;100.00;101110.34;6096440;23;20097;-86
2021/10/13 01:09:59;;;;;;;18.33;5.80;;;5.90;99.90;;;6.91;100.00;101109.34;6072183;23;20085;-87
2021/10/13 01:13:12;;;;;;;13.90;6.22;;;5.80;99.90;;;6.93;100.00;101101.53;6071956;23;20006;-85
2021/10/13 01:15:44;;;;;;;14.15;6.18;;;5.80;99.90;;;6.89;100.00;101106.91;6072291;23;20350;-87
2021/10/13 01:18:52;;;;;;;13.60;5.47;;;5.80;99.90;;;6.81;100.00;101104.91;6076553;23;20011;-88
2021/10/13 01:22:20;;;;;;;17.10;6.45;;;5.70;99.90;;;6.71;100.00;101099.63;6079506;23;20014;-89
2021/10/13 01:25:21;;;;;;;13.05;6.43;;;5.60;99.90;;;6.67;100.00;101104.22;6097020;23;20010;-86
2021/10/13 01:28:08;;;;;;;21.30;6.82;;;5.60;99.90;;;6.67;100.00;101103.38;6075291;23;20085;-91
2021/10/13 01:31:11;;;;;;;15.45;6.43;;;5.60;99.90;;;6.62;100.00;101104.34;6102775;23;20094;-89
2021/10/13 01:33:52;;;;;;;19.50;6.43;;;5.60;99.90;;;6.64;100.00;101101.25;6076080;23;20014;-87
2021/10/13 01:36:30;;;;;;;15.65;6.60;;;5.60;99.90;;;6.61;100.00;101102.72;6076627;23;20083;-88
2021/10/13 01:39:01;;;;;;;9.93;6.32;;;5.60;99.90;;;6.58;100.00;101100.56;6104930;23;20026;-89
2021/10/13 01:41:29;;;;;;;13.02;6.25;;;5.50;99.90;;;6.59;100.00;101107.75;6074754;23;20011;-86
2021/10/13 01:44:01;;;;;;;13.75;6.82;;;5.50;99.90;;;6.63;100.00;101119.88;6098311;23;20401;-84
2021/10/13 01:46:32;;;;;;;14.57;6.72;;;5.50;99.90;;;6.67;100.00;101112.53;6072186;23;20478;-86
2021/10/13 01:49:07;;;;;;;15.43;7.05;;;5.60;99.90;;;6.78;100.00;101115.81;6096191;23;20015;-88
2021/10/13 01:51:39;;;;;;;15.45;6.88;;;5.70;99.90;;;6.88;100.00;101124.69;6071806;23;20006;-87
2021/10/13 01:54:07;;;;;;;18.70;8.20;;;5.70;99.90;;;6.99;100.00;101128.00;6097010;23;20006;-87
2021/10/13 01:56:38;;;;;;;19.02;7.53;;;5.80;99.90;;;7.06;100.00;101138.63;6096270;23;20014;-84
2021/10/13 01:59:19;;;;;;;13.73;7.18;;;5.90;99.90;;;7.11;100.00;101135.69;6072271;23;20010;-86
2021/10/13 02:01:52;;;;;;;14.23;7.05;;;5.90;99.90;;;7.12;100.00;101129.00;6072434;23;20060;-84
2021/10/13 02:04:21;;;;;;;16.58;7.10;;;6.00;99.90;;;7.18;100.00;101128.53;6072272;23;20078;-86
2021/10/13 02:06:51;;;;;;;12.82;7.78;;;6.10;99.90;;;7.21;100.00;101122.31;6072605;23;20006;-87
2021/10/13 02:09:26;;;;;;;16.45;7.80;;;6.10;99.90;;;7.21;100.00;101129.84;6073016;23;20034;-87
2021/10/13 02:12:00;;;;;;;11.93;7.72;;;6.10;99.90;;;7.29;100.00;101131.78;6096174;23;20329;-86
2021/10/13 02:14:30;;;;;;;16.73;7.65;;;6.20;99.90;;;7.40;100.00;101136.72;6071890;23;20424;-86
2021/10/13 02:17:00;;;;;;;14.65;7.60;;;6.20;99.90;;;7.36;100.00;101124.63;6098082;23;20094;-84
2021/10/13 02:19:29;;;;;;;16.23;7.03;;;6.30;99.90;;;7.50;100.00;101123.66;6072145;23;20146;-87
2021/10/13 02:22:00;;;;;;;14.73;7.60;;;6.30;99.90;;;7.57;100.00;101122.03;6096000;23;20014;-87
2021/10/13 02:24:39;;;;;;;18.65;8.10;;;6.40;99.90;;;7.51;100.00;101116.97;6097505;23;20042;-84
2021/10/13 02:27:21;;;;;;;13.73;7.72;;;6.40;99.90;;;7.60;100.00;101121.38;6097358;23;20013;-87
2021/10/13 02:29:47;;;;;;;21.95;8.38;;;6.50;99.90;;;7.65;100.00;101121.22;6098212;23;20097;-88
2021/10/13 02:32:13;;;;;;;21.48;8.73;;;6.60;99.90;;;7.70;100.00;101121.06;6072066;23;20448;-86
2021/10/13 02:34:42;;;;;;;15.10;7.78;;;6.60;99.90;;;7.86;100.00;101136.09;6095566;23;20049;-86
2021/10/13 02:37:09;;;;;;;15.65;6.50;;;6.60;99.90;;;7.87;100.00;101146.06;6072335;23;20010;-88
2021/10/13 02:39:35;;;;;;;13.27;7.00;;;6.70;99.90;;;7.92;100.00;101154.25;6072550;23;20017;-84
2021/10/13 02:42:06;;;;;;;12.05;7.22;;;6.70;99.90;;;7.89;100.00;101157.69;6071091;23;20017;-87
2021/10/13 02:44:32;;;;;;;11.90;6.72;;;6.70;99.90;;;7.99;100.00;101156.53;6095013;23;20344;-87
2021/10/13 02:47:47;;;;;;;17.40;6.88;;;6.80;99.90;;;8.04;100.00;101158.31;6097087;23;20352;-89
2021/10/13 02:50:44;;;;;;;14.88;7.65;;;6.80;99.90;;;8.09;100.00;101160.94;6076668;23;20010;-85
2021/10/13 02:53:48;;;;;;;;;;;6.90;99.90;;;8.14;100.00;101174.69;6083360;23;20014;-88
2021/10/13 02:56:25;;;;;;;11.82;6.18;;;6.90;99.90;;;8.12;100.00;101161.13;6083037;23;19905;-87
2021/10/13 02:59:12;;;;;;;10.07;6.15;;;6.90;99.90;;;8.09;100.00;101150.63;6096230;23;20007;-88
2021/10/13 03:01:43;;;;;;;16.90;7.40;;;6.90;99.90;;;8.04;100.00;101149.97;6095954;23;20021;-87
2021/10/13 03:04:25;;;;;;;14.50;7.05;;;6.90;99.90;;;8.06;100.00;101161.63;6071902;23;20024;-87
2021/10/13 03:07:20;;;;;;;13.00;6.55;;;6.90;99.90;;;8.10;100.00;101160.59;6097122;23;20003;-85
2021/10/13 03:10:00;;;;;;;16.90;7.18;;;6.90;99.90;;;8.11;100.00;101164.22;6098615;23;20082;-84
2021/10/13 03:12:35;;;;;;;15.68;7.55;;;6.90;99.90;;;8.05;100.00;101166.34;6072871;23;20011;-86
2021/10/13 03:15:03;;;;;;;17.50;6.93;;;6.90;99.90;;;8.04;100.00;101164.72;6096842;23;20104;-86
2021/10/13 03:17:30;;;;;;;9.93;6.60;;;6.80;99.90;;;7.94;100.00;101160.31;6096052;23;20026;-87
2021/10/13 03:19:58;;;;;;;18.75;7.40;;;6.80;99.90;;;7.88;100.00;101169.97;6094682;23;20006;-84
2021/10/13 03:22:28;;;;;;;12.10;6.38;;;6.70;99.90;;;7.84;100.00;101176.50;6094878;23;20007;-85
2021/10/13 03:24:54;;;;;;;13.27;7.57;;;6.60;99.90;;;7.76;100.00;101180.94;6101480;23;20010;-86
2021/10/13 03:27:27;;;;;;;11.27;5.47;;;6.60;99.90;;;7.66;100.00;101175.69;6074449;23;20344;-87
2021/10/13 03:29:54;;;;;;;12.50;6.30;;;6.50;99.90;;;7.58;100.00;101178.47;6096394;23;20002;-86
2021/10/13 03:32:20;;;;;;;10.38;6.45;;;6.40;99.90;;;7.45;100.00;101166.31;6071568;23;20416;-88
2021/10/13 03:34:49;;;;;;;11.98;7.60;;;6.30;99.90;;;7.41;100.00;101190.38;6098109;23;20003;-86
2021/10/13 03:37:17;;;;;;;11.90;7.07;;;6.30;99.90;;;7.32;100.00;101189.53;6072817;23;20014;-84
2021/10/13 03:39:53;;;;;;;16.58;7.10;;;6.20;99.90;;;7.24;100.00;101190.31;6073778;23;20006;-87
2021/10/13 03:42:19;;;;;;;13.15;6.80;;;6.10;99.90;;;7.18;100.00;101186.03;6073032;23;20011;-86
2021/10/13 03:44:45;;;;;;;18.58;7.85;;;6.00;99.90;;;7.12;100.00;101187.34;6096774;23;20015;-84
2021/10/13 03:47:11;;;;;;;14.73;7.22;;;6.00;99.90;;;7.14;100.00;101196.16;6072074;23;20459;-86
2021/10/13 03:49:37;;;;;;;13.35;6.93;;;6.00;99.90;;;7.11;100.00;101191.25;6098572;23;20002;-82
2021/10/13 03:52:04;;;;;;;15.30;7.85;;;6.00;99.90;;;7.11;100.00;101191.25;6072303;23;20154;-88
2021/10/13 03:54:30;;;;;;;15.85;7.85;;;6.00;99.90;;;7.09;100.00;101194.38;6072432;23;20014;-87
2021/10/13 03:56:58;;;;;;;20.30;8.35;;;6.00;99.90;;;7.04;100.00;101186.16;6095938;23;20017;-85
2021/10/13 03:59:24;;;;;;;22.63;7.97;;;5.90;99.90;;;6.98;100.00;101195.78;6096461;23;20017;-86
2021/10/13 04:01:50;;;;;;;18.95;8.45;;;5.90;99.90;;;6.91;100.00;101198.19;6095680;23;20089;-87
2021/10/13 04:04:16;;;;;;;18.17;8.55;;;5.90;99.90;;;6.93;100.00;101200.66;6071579;23;20014;-86
2021/10/13 04:06:42;;;;;;;18.42;9.90;;;5.90;99.90;;;6.96;100.00;101205.56;6097606;23;20017;-85
2021/10/13 04:09:08;;;;;;;17.77;9.00;;;5.80;99.90;;;6.94;100.00;101202.28;6096253;23;20006;-84
2021/10/13 04:11:34;;;;;;;21.70;9.80;;;5.80;99.90;;;6.95;100.00;101204.75;6097306;23;20081;-86
2021/10/13 04:14:00;;;;;;;22.80;9.52;;;5.90;99.90;;;6.97;100.00;101205.25;6096942;23;20384;-85
2021/10/13 04:16:29;;;;;;;20.85;9.80;;;5.90;99.90;;;7.03;100.00;101214.28;6098166;23;20003;-84
2021/10/13 04:18:54;;;;;;;16.92;9.35;;;5.90;99.90;;;7.01;100.00;101211.81;6085445;23;20006;-82
2021/10/13 04:21:20;;;;;;;15.48;8.95;;;5.90;99.90;;;7.01;100.00;101222.09;6107933;23;20005;-86
2021/10/13 04:23:49;;;;;;;17.25;8.52;;;5.90;99.90;;;6.93;100.00;101229.25;6074851;23;20029;-85
2021/10/13 04:26:15;;;;;;;21.42;10.70;;;5.80;99.90;;;6.76;100.00;101218.88;6102603;23;20034;-84
2021/10/13 04:28:46;;;;;;;20.25;10.02;;;5.70;99.90;;;6.81;100.00;101209.56;6118238;23;19995;-87
2021/10/13 04:31:12;;;;;;;17.88;9.40;;;5.70;99.90;;;6.80;100.00;101222.66;6086040;23;20017;-88
2021/10/13 04:33:38;;;;;;;17.27;10.27;;;5.70;99.90;;;6.90;100.00;101225.13;6077900;23;20021;-89
2021/10/13 04:36:04;;;;;;;23.50;10.25;;;5.80;99.90;;;6.92;100.00;101224.00;6081735;23;20014;-87
2021/10/13 04:38:30;;;;;;;26.10;12.82;;;5.80;99.90;;;6.91;100.00;101228.75;6083917;23;20024;-87
2021/10/13 04:40:55;;;;;;;28.90;11.73;;;5.80;99.90;;;6.90;100.00;101225.13;6106612;23;20062;-87
2021/10/13 04:43:21;;;;;;;26.13;12.55;;;5.90;99.90;;;6.99;100.00;101227.97;6081134;23;20010;-88
2021/10/13 04:45:47;;;;;;;29.20;11.85;;;5.80;99.90;;;6.96;100.00;101225.03;6098376;23;20013;-82
2021/10/13 04:48:13;;;;;;;27.63;12.48;;;5.90;99.90;;;6.99;100.00;101222.44;6097327;23;20003;-81
2021/10/13 04:50:39;;;;;;;29.25;13.88;;;5.90;99.90;;;7.04;100.00;101219.50;6072403;23;20081;-84
2021/10/13 04:53:05;;;;;;;29.00;12.90;;;6.00;99.90;;;7.15;100.00;101228.38;6075728;23;20011;-86
2021/10/13 04:55:31;;;;;;;25.65;12.48;;;6.00;99.90;;;7.24;100.00;101218.91;6105520;23;20010;-83
2021/10/13 04:57:57;;;;;;;28.10;13.80;;;6.10;99.90;;;7.26;100.00;101229.69;6100809;23;20006;-83
2021/10/13 05:00:23;;;;;;;22.90;12.52;;;6.10;99.90;;;7.23;100.00;101219.22;6073231;23;20010;-84
2021/10/13 05:02:53;;;;;;;32.72;14.77;;;6.10;99.90;;;7.22;100.00;101221.22;6073489;23;20487;-82
2021/10/13 05:05:19;;;;;;;28.00;13.85;;;6.10;99.90;;;7.23;100.00;101220.06;6097757;23;20061;-86
2021/10/13 05:07:45;;;;;;;26.45;13.43;;;6.10;99.90;;;7.24;100.00;101224.47;6099389;23;20007;-86
2021/10/13 05:10:10;;;;;;;19.70;12.32;;;6.10;99.90;;;7.25;100.00;101228.91;6073219;23;20006;-85
2021/10/13 05:12:36;;;;;;;25.48;13.13;;;6.10;99.90;;;7.18;100.00;101228.53;6097872;23;20010;-84
2021/10/13 05:15:02;;;;;;;23.77;12.27;;;6.10;99.90;;;7.21;100.00;101225.13;6074807;23;20011;-84
2021/10/13 05:17:32;;;;;;;27.15;11.77;;;6.10;99.90;;;7.23;100.00;101227.56;6073548;23;20014;-85
2021/10/13 05:20:01;;;;;;;26.17;13.93;;;6.10;99.90;;;7.17;100.00;101215.78;6097529;23;20030;-86
2021/10/13 05:22:26;;;;;;;25.33;12.25;;;6.00;99.90;;;7.18;100.00;101227.72;6099387;23;20007;-83
2021/10/13 05:24:52;;;;;;;22.15;11.60;;;6.10;99.90;;;7.15;100.00;101234.75;6074098;23;20093;-84
2021/10/13 05:27:18;;;;;;;23.08;12.35;;;6.00;99.90;;;7.10;100.00;101234.03;6073121;23;20093;-85
2021/10/13 05:29:44;;;;;;;27.85;13.48;;;6.00;99.90;;;7.00;100.00;101242.69;6112925;23;20125;-83
2021/10/13 05:32:10;;;;;;;32.35;13.68;;;6.00;99.90;;;7.02;100.00;101235.66;6102380;23;20014;-86
2021/10/13 05:34:36;;;;;;;30.52;15.60;;;5.90;99.90;;;7.03;100.00;101248.41;6099122;23;20007;-86
2021/10/13 05:37:05;;;;;;;28.75;15.23;;;6.00;99.90;;;7.03;100.00;101248.41;6075705;23;20034;-85
2021/10/13 05:39:31;;;;;;;28.52;14.88;;;6.00;99.90;;;6.97;100.00;101249.69;6099454;23;20006;-85
2021/10/13 05:41:57;;;;;;;31.10;14.82;;;5.90;99.90;;;7.03;100.00;101264.25;6073828;23;20109;-88
2021/10/13 05:44:23;;;;;;;26.33;15.38;;;5.90;99.90;;;7.10;100.00;101259.03;6099376;23;20010;-86
2021/10/13 05:46:49;;;;;;;28.00;14.40;;;6.00;99.90;;;7.14;100.00;101265.59;6073401;23;20013;-84
2021/10/13 05:49:15;;;;;;;24.15;13.60;;;6.00;99.90;;;7.18;100.00;101273.00;6098704;23;20012;-83
2021/10/13 05:51:40;;;;;;;25.52;12.93;;;6.00;99.90;;;7.22;100.00;101268.44;6072946;23;20006;-86
2021/10/13 05:54:09;;;;;;;23.92;12.90;;;6.10;99.90;;;7.27;100.00;101265.50;6073302;23;20251;-85
2021/10/13 05:56:35;;;;;;;25.70;13.35;;;6.10;99.90;;;7.32;100.00;101272.91;6099559;23;20014;-85
2021/10/13 05:59:07;;;;;;;27.63;14.90;;;6.10;99.90;;;7.35;100.00;101281.38;6099229;23;20081;-84
2021/10/13 06:01:33;;;;;;;28.73;14.07;;;6.20;99.90;;;7.38;100.00;101286.28;6073327;23;20022;-84
2021/10/13 06:04:05;;;;;;;25.45;13.98;;;6.20;99.90;;;7.46;100.00;101281.09;6072172;23;20013;-85
2021/10/13 06:06:31;;;;;;;23.58;13.23;;;6.20;99.90;;;7.53;100.00;101285.06;6072621;23;20216;-85
2021/10/13 06:08:57;;;;;;;27.73;13.82;;;6.30;99.90;;;7.61;100.00;101283.44;6095085;23;20009;-87
2021/10/13 06:11:25;;;;;;;24.92;13.43;;;6.40;99.90;;;7.67;100.00;101284.94;6071982;23;20014;-85
2021/10/13 06:13:52;;;;;;;26.95;14.50;;;6.40;99.90;;;7.72;100.00;101282.81;6072555;23;20013;-84
2021/10/13 06:16:22;;;;;;;24.88;13.50;;;6.50;99.90;;;7.75;100.00;101282.16;6072809;23;20057;-83
2021/10/13 06:18:50;;;;;;;26.15;13.73;;;6.50;99.90;;;7.85;100.00;101292.16;6072572;23;20010;-84
2021/10/13 06:21:20;;;;;;;22.98;13.65;;;6.60;99.90;;;7.90;100.00;101297.56;6072902;23;20010;-84
2021/10/13 06:23:47;;;;;;;22.15;13.30;;;6.70;99.90;;;7.99;100.00;101295.63;6096146;23;20007;-87
2021/10/13 06:26:14;;;;;;;22.10;12.48;;;6.80;99.90;;;8.04;100.00;101300.19;6098101;23;20101;-86
2021/10/13 06:28:40;;;;;;;22.85;11.80;;;6.80;99.90;;;8.06;100.00;101301.50;6072684;23;20091;-85
2021/10/13 06:31:06;;;;;;;28.90;14.23;;;6.80;99.90;;;8.12;100.00;101305.81;6072835;23;20010;-85
2021/10/13 06:33:33;;;;;;;28.80;13.48;;;6.90;99.90;;;8.21;100.00;101311.34;6097337;23;20037;-85
2021/10/13 06:36:00;;;;;;;22.02;12.23;;;7.00;99.90;;;8.33;100.00;101317.94;6072700;23;20013;-86
2021/10/13 06:38:26;;;;;;;27.80;14.80;;;7.10;99.90;;;8.49;100.00;101323.84;6098164;23;20077;-86
2021/10/13 06:40:52;;;;;;;31.42;13.35;;;7.20;99.90;;;8.66;100.00;101325.81;6072517;23;20455;-86
2021/10/13 06:43:18;;;;;;;25.70;14.18;;;7.30;99.90;;;8.80;100.00;101321.69;6072299;23;20406;-86
2021/10/13 06:45:44;;;;;;;26.35;14.43;;;7.50;99.90;;;8.88;100.00;101320.03;6096440;23;20042;-87
2021/10/13 06:48:10;;;;;;;28.80;13.93;;;7.60;99.90;;;9.02;100.00;101317.88;6097065;23;20006;-86
2021/10/13 06:50:39;;;;;;;26.85;12.85;;;7.70;99.90;;;9.15;100.00;101316.06;6073508;23;20014;-87
2021/10/13 06:53:05;;;;;;;21.27;12.18;;;7.80;99.90;;;9.28;100.00;101310.25;6073646;23;20033;-87
2021/10/13 06:55:31;;;;;;;22.63;12.55;;;7.90;99.90;;;9.33;100.00;101315.66;6100686;23;20364;-86
2021/10/13 06:57:58;;;;;;;21.02;11.68;;;7.90;99.90;;;9.33;100.00;101320.41;6092653;23;20074;-84
2021/10/13 07:00:24;;;;;;;20.45;11.45;;;8.00;99.90;;;9.31;100.00;101322.72;6091561;23;20475;-89
2021/10/13 07:02:50;;;;;;;19.20;10.95;;;8.00;99.90;;;9.35;100.00;101323.66;6084649;23;20014;-86
2021/10/13 07:05:17;;;;;;;23.20;10.65;;;8.00;99.90;;;9.25;100.00;101316.47;6101565;23;20007;-86
2021/10/13 07:07:49;;;;;;;20.80;10.82;;;8.00;99.90;;;9.31;100.00;101328.28;6100587;23;20010;-89
2021/10/13 07:10:18;;;;;;;20.80;11.48;;;8.00;99.90;;;9.28;100.00;101340.13;6074047;23;20013;-87
2021/10/13 07:12:45;;;;;;;24.92;11.98;;;7.90;99.90;;;9.33;100.00;101335.16;6098768;23;20012;-86
2021/10/13 07:15:13;;;;;;;19.33;10.45;;;8.00;99.90;;;9.38;100.00;101348.09;6075619;23;20045;-90
2021/10/13 07:17:39;;;;;;;20.17;10.65;;;8.00;99.90;;;9.22;100.00;101347.00;6075371;23;20093;-88
2021/10/13 07:20:11;;;;;;;19.83;10.90;;;8.00;99.90;;;9.39;100.00;101338.59;6075987;23;20021;-90
2021/10/13 07:22:41;;;;;;;18.17;10.82;;;8.00;99.90;;;9.52;100.00;101354.28;6077449;23;20038;-88
2021/10/13 07:25:09;;;;;;;23.67;10.52;;;8.10;99.90;;;9.52;100.00;101351.50;6073134;23;20021;-86
2021/10/13 07:27:37;;;;;;;16.35;9.75;;;8.20;99.90;;;9.57;100.00;101358.88;6096951;23;20061;-88
2021/10/13 07:30:11;;;;;;;20.17;10.52;;;8.20;99.90;;;9.63;100.00;101344.41;6072594;23;20006;-86
2021/10/13 07:32:38;;;;;;;20.60;9.90;;;8.30;99.90;;;9.46;100.00;101350.03;6072299;23;20010;-88
2021/10/13 07:35:07;;;;;;;22.50;11.45;;;8.30;99.90;;;9.64;100.00;101357.19;6073169;23;20057;-85
2021/10/13 07:37:36;;;;;;;19.92;9.82;;;8.30;99.90;;;9.75;100.00;101350.09;6072906;23;20014;-87
2021/10/13 07:40:06;;;;;;;19.17;10.05;;;8.40;99.90;;;9.82;100.00;101349.56;6073415;23;20021;-86
2021/10/13 07:42:33;;;;;;;19.67;10.30;;;8.40;99.90;;;9.98;100.00;101359.81;6073290;23;20013;-85
2021/10/13 07:45:09;;;;;;;19.17;10.50;;;8.60;99.90;;;9.99;100.00;101361.44;6072744;23;20105;-85
2021/10/13 07:47:38;;;;;;;20.52;10.27;;;8.60;99.90;;;10.18;100.00;101357.44;6073193;23;20347;-87
2021/10/13 07:50:08;;;;;;;20.20;9.45;;;8.80;99.90;;;10.14;100.00;101356.47;6073371;23;20025;-87
2021/10/13 07:52:35;;;;;;;19.17;10.45;;;8.80;99.90;;;10.23;100.00;101362.81;6073107;23;20087;-87
2021/10/13 07:55:06;;;;;;;22.05;10.25;;;8.90;99.90;;;10.20;100.00;101371.84;6072664;23;20015;-85
2021/10/13 07:57:32;;;;;;;21.00;10.25;;;8.90;99.90;;;10.03;100.00;101367.97;6073222;23;20448;-87
2021/10/13 07:59:58;;;;;;;18.27;10.95;;;8.90;99.90;;;9.93;100.00;101364.75;6073695;23;20021;-88
2021/10/13 08:02:27;;;;;;;14.93;8.93;;;8.80;99.90;;;10.09;100.00;101365.81;6097222;23;20289;-86
2021/10/13 08:04:53;;;;;;;18.15;9.30;;;8.80;99.90;;;10.13;100.00;101375.16;6095313;23;20440;-84
2021/10/13 08:07:19;;;;;;;17.55;8.82;;;8.90;99.90;;;10.15;100.00;101372.84;6096618;23;20014;-87
2021/10/13 08:09:45;;;;;;;21.27;9.98;;;8.80;99.90;;;10.32;100.00;101385.91;6095800;23;19998;-86
2021/10/13 08:12:17;;;;;;;19.63;10.20;;;9.00;99.90;;;10.37;100.00;101391.31;6096114;23;20272;-86
2021/10/13 08:14:43;;;;;;;15.32;8.93;;;9.10;99.90;;;10.42;100.00;101388.28;6075723;23;20010;-88
2021/10/13 08:17:10;;;;;;;21.67;10.52;;;9.10;99.90;;;10.46;100.00;101394.84;6101667;23;20019;-89
2021/10/13 08:19:37;;;;;;;24.02;10.73;;;9.10;99.90;;;10.51;100.00;101398.25;6073161;23;20037;-87
2021/10/13 08:22:05;;;;;;;18.90;9.82;;;9.30;99.90;;;10.82;100.00;101402.63;6071909;23;20066;-85
2021/10/13 08:24:34;;;;;;;19.38;10.15;;;9.40;99.90;;;11.05;100.00;101403.88;6096240;23;20098;-86
2021/10/13 08:27:03;;;;;;;19.35;9.48;;;9.60;99.90;;;11.36;100.00;101415.44;6074009;23;20403;-83
2021/10/13 08:29:38;;;;;;;17.75;10.15;;;9.80;99.90;;;11.50;100.00;101407.53;6098605;23;20002;-86
2021/10/13 08:32:05;;;;;;;18.55;9.38;;;10.00;99.90;;;11.67;100.00;101411.28;6071997;23;20010;-85
2021/10/13 08:34:31;;;;;;;19.60;8.68;;;10.10;99.90;;;11.80;100.00;101408.19;6072366;23;20034;-87
2021/10/13 08:36:59;;;;;;;17.42;8.73;;;10.20;99.90;;;11.91;100.00;101406.56;6098786;23;20021;-87
2021/10/13 08:39:28;;;;;;;14.93;9.15;;;10.40;99.90;;;12.17;100.00;101408.22;6100057;23;20011;-87
2021/10/13 08:41:54;;;;;;;17.10;7.63;;;10.60;99.90;;;12.00;98.54;101410.09;6107413;23;20046;-84
2021/10/13 08:44:20;;;;;;;21.15;7.70;;;10.60;99.90;;;12.00;99.99;101410.09;6079689;23;20081;-85
2021/10/13 08:46:46;;;;;;;13.73;6.93;;;10.60;99.90;;;12.03;99.91;101411.38;6080947;23;20033;-85
2021/10/13 08:49:12;;;;;;;14.63;6.82;;;10.70;99.90;;;12.02;99.88;101404.13;6103258;23;20006;-83
2021/10/13 08:51:42;;;;;;;18.40;7.88;;;10.70;99.90;;;11.96;98.76;101419.53;6076495;23;20002;-86
2021/10/13 08:54:18;;;;;;;13.60;6.65;;;10.70;99.90;;;12.20;98.32;101416.72;6100005;23;20093;-85
2021/10/13 08:56:47;;;;;;;;;;;10.80;99.90;;;11.92;98.72;101412.97;6102269;23;20321;-84
2021/10/13 08:59:48;;;;;;;16.60;7.95;;;10.70;99.90;;;12.12;98.94;101407.28;6100386;23;20346;-84
2021/10/13 09:02:41;;;;;;;17.08;7.35;;;10.80;99.90;;;12.28;98.75;101409.38;6099967;23;20013;-86
2021/10/13 09:05:11;;;;;;;15.30;6.82;;;10.90;99.90;;;12.48;97.10;101419.63;6074864;23;20017;-84
2021/10/13 09:07:52;;;;;;;13.43;6.68;;;11.00;99.90;;;12.89;96.78;101412.88;6098684;23;20002;-87
2021/10/13 09:10:36;;;;;;;17.80;7.38;;;11.30;99.90;;;12.99;94.36;101413.19;6075359;23;20470;-86
2021/10/13 09:13:17;;;;;;;13.98;6.72;;;11.50;99.90;;;13.25;91.92;101414.75;6073332;23;20011;-86
2021/10/13 09:15:54;;;;;;;13.85;6.72;;;11.70;99.90;;;13.30;91.15;101412.50;6074728;23;20352;-84
2021/10/13 09:18:24;;;;;;;10.38;6.13;;;11.70;99.90;;;13.33;92.40;101422.19;6099020;23;20010;-86
2021/10/13 09:20:54;;;;;;;12.07;6.53;;;11.80;99.90;;;13.15;91.30;101421.69;6100464;23;20027;-87
2021/10/13 09:23:30;;;;;;;22.30;10.40;;;11.80;99.90;;;13.09;92.03;101414.72;6099973;23;20010;-85
2021/10/13 09:26:11;;;;;;;10.10;5.68;;;11.70;99.90;;;13.18;91.42;101416.19;6076547;23;20373;-86
2021/10/13 09:28:40;;;;;;;11.23;5.68;;;11.70;99.90;;;13.35;92.35;101417.88;6076267;23;20006;-87
2021/10/13 09:31:22;;;;;;;18.95;7.25;;;11.80;99.90;;;13.67;91.97;101415.94;6075296;23;20018;-84
2021/10/13 09:34:11;;;;;;;16.27;7.65;;;12.10;99.90;;;13.67;90.49;101413.13;6075791;23;20022;-85
2021/10/13 09:36:50;;;;;;;11.75;6.40;;;12.20;99.90;;;14.15;90.50;101414.75;6073141;23;20010;-86
2021/10/13 09:39:19;;;;;;;19.27;6.03;;;12.50;99.90;;;13.92;89.10;101420.19;6072717;23;20007;-86
2021/10/13 09:42:08;;;;;;;14.45;6.03;;;12.50;99.90;;;14.20;87.94;101418.09;6071951;23;20010;-85
2021/10/13 09:44:53;;;;;;;13.38;5.88;;;12.60;99.90;;;14.37;86.51;101416.09;6076721;23;20070;-85
2021/10/13 09:47:19;;;;;;;8.70;5.20;;;12.70;99.90;;;14.12;86.94;101421.91;6093807;23;20018;-88
2021/10/13 09:49:49;;;;;;;14.35;5.80;;;12.70;99.90;;;14.07;87.53;101422.19;6081717;23;20011;-86
2021/10/13 09:52:24;;;;;;;11.95;5.50;;;12.50;99.90;;;13.98;86.55;101427.16;6103876;23;20010;-87
2021/10/13 09:55:18;;;;;;;11.55;6.15;;;12.50;99.90;;;13.69;88.09;101413.56;6112528;23;20062;-87
2021/10/13 09:57:49;;;;;;;13.32;6.13;;;12.30;99.90;;;13.81;88.85;101421.06;6079056;23;20010;-89
2021/10/13 10:00:25;;;;;;;15.15;6.47;;;12.30;99.90;;;13.97;86.86;101410.66;6077387;23;20006;-84
2021/10/13 10:02:59;;;;;;;17.75;9.23;;;12.40;99.90;;;14.35;86.80;101415.66;6109908;23;20002;-88
2021/10/13 10:05:37;;;;;;;14.30;6.45;;;12.70;99.90;;;14.96;86.13;101405.38;6104570;23;20006;-87
2021/10/13 10:08:06;;;;;;;14.93;6.78;;;13.10;99.90;;;14.80;84.17;101417.91;6099936;23;20065;-85
2021/10/13 10:10:36;;;;;;;13.43;5.55;;;13.30;99.90;;;14.97;82.87;101409.84;6097873;23;20026;-88
2021/10/13 10:13:11;;;;;;;12.93;5.47;;;13.40;99.90;;;15.39;81.79;101418.34;6099529;23;20006;-88
2021/10/13 10:15:48;;;;;;;10.88;5.88;;;13.60;99.90;;;16.06;80.71;101418.78;6073834;23;20121;-88
2021/10/13 10:18:36;;;;;;;10.45;5.60;;;14.00;99.90;;;16.22;74.26;101419.44;6097366;23;20010;-87
2021/10/13 10:21:23;;;;;;;11.65;5.85;;;14.40;99.90;;;16.71;75.69;101414.63;6097611;23;20093;-85
2021/10/13 10:24:35;;;;;;;11.18;5.07;;;14.70;99.90;;;17.13;72.42;101428.47;6097358;23;20089;-84
2021/10/13 10:27:33;;;;;;;11.48;5.10;;;15.00;99.90;;;16.92;74.31;101421.75;6074703;23;20006;-86
2021/10/13 10:30:19;;;;;;;14.18;5.50;;;15.10;99.90;;;16.33;75.26;101420.44;6049841;23;20075;-88